createdAt,value
2023-04-30T00:00:15.191Z,63.0870
2023-04-30T00:01:17.526Z,63.8303
2023-04-30T00:02:19.882Z,65.6811
2023-04-30T00:03:22.243Z,64.7909
2023-04-30T00:04:24.690Z,64.1482
2023-04-30T00:05:27.056Z,63.9835
2023-04-30T00:06:29.216Z,65.0604
2023-04-30T00:07:31.551Z,65.0007
2023-04-30T00:08:33.849Z,65.9990
2023-04-30T00:09:36.280Z,66.0048
2023-04-30T00:10:38.536Z,65.9129
2023-04-30T00:11:40.879Z,66.0903
2023-04-30T00:12:43.227Z,65.6982
2023-04-30T00:13:45.532Z,64.8432
2023-04-30T00:14:47.882Z,66.2980
2023-04-30T00:15:50.210Z,66.1346
2023-04-30T00:16:52.573Z,64.9797
2023-04-30T00:17:54.973Z,64.4686
2023-04-30T00:18:57.301Z,64.6811
2023-04-30T00:19:59.574Z,63.9908
2023-04-30T00:21:01.897Z,63.5176
2023-04-30T00:22:04.320Z,64.3563
2023-04-30T00:23:06.595Z,65.5283
2023-04-30T00:24:08.925Z,65.8310
2023-04-30T00:25:11.258Z,65.3178
2023-04-30T00:26:13.583Z,64.9754
2023-04-30T00:27:15.981Z,66.4127
2023-04-30T00:28:18.267Z,65.7236
2023-04-30T00:29:20.601Z,65.6266
2023-04-30T00:30:22.936Z,65.1406
2023-04-30T00:31:25.351Z,65.5566
2023-04-30T00:32:27.680Z,65.0083
2023-04-30T00:33:29.963Z,64.1641
2023-04-30T00:34:32.334Z,64.0340
2023-04-30T00:35:34.608Z,64.6097
2023-04-30T00:36:37.049Z,65.4216
2023-04-30T00:37:39.324Z,65.9021
2023-04-30T00:38:41.683Z,65.8820
2023-04-30T00:39:44.008Z,65.7656
2023-04-30T00:40:46.294Z,67.3830
2023-04-30T00:41:48.807Z,66.6344
2023-04-30T00:42:50.980Z,66.7990
2023-04-30T00:43:53.310Z,67.1533
2023-04-30T00:44:55.671Z,67.1841
2023-04-30T00:45:58.031Z,66.3729
2023-04-30T00:47:00.386Z,65.5222
2023-04-30T00:48:02.771Z,64.9584
2023-04-30T00:49:05.096Z,65.7305
2023-04-30T00:50:07.400Z,64.9209
2023-04-30T00:51:09.672Z,64.7220
2023-04-30T00:52:12.044Z,65.1983
2023-04-30T00:53:14.356Z,65.1030
2023-04-30T00:54:16.728Z,65.3012
2023-04-30T00:55:19.054Z,64.9007
2023-04-30T00:56:21.411Z,63.8984
2023-04-30T00:57:23.719Z,63.5379
2023-04-30T00:58:26.102Z,64.0759
2023-04-30T00:59:28.387Z,64.9846
2023-04-30T01:00:30.811Z,66.0698
2023-04-30T01:01:33.177Z,65.8629
2023-04-30T01:02:35.490Z,66.2965
2023-04-30T01:03:37.810Z,65.6201
2023-04-30T01:04:40.084Z,65.6728
2023-04-30T01:05:42.483Z,67.4455
2023-04-30T01:06:44.875Z,68.4229
2023-04-30T01:07:47.125Z,67.7785
2023-04-30T01:08:49.485Z,67.3747
2023-04-30T01:09:51.962Z,66.6768
2023-04-30T01:10:54.156Z,66.1933
2023-04-30T01:11:56.473Z,66.5857
2023-04-30T01:12:58.787Z,66.4640
2023-04-30T01:14:01.142Z,66.4728
2023-04-30T01:15:03.453Z,65.4172
2023-04-30T01:16:05.817Z,65.8939
2023-04-30T01:17:08.146Z,66.3862
2023-04-30T01:18:10.559Z,67.5412
2023-04-30T01:19:12.909Z,67.2138
2023-04-30T01:20:15.189Z,66.5112
2023-04-30T01:21:17.518Z,66.1660
2023-04-30T01:22:19.821Z,67.1611
2023-04-30T01:23:22.188Z,66.9241
2023-04-30T01:24:24.499Z,66.1458
2023-04-30T01:25:26.846Z,66.2307
2023-04-30T01:26:29.193Z,65.7425
2023-04-30T01:27:31.504Z,66.5996
2023-04-30T01:28:33.850Z,67.1319
2023-04-30T01:29:36.185Z,66.8245
2023-04-30T01:30:38.544Z,65.9470
2023-04-30T01:31:40.925Z,65.5951
2023-04-30T01:32:43.229Z,66.7059
2023-04-30T01:33:45.692Z,67.7923
2023-04-30T01:34:47.966Z,67.5496
2023-04-30T01:35:50.251Z,66.3223
2023-04-30T01:36:52.706Z,66.0751
2023-04-30T01:37:54.909Z,66.0727
2023-04-30T01:38:57.219Z,67.6700
2023-04-30T01:39:59.589Z,67.7560
2023-04-30T01:41:01.914Z,67.4120
2023-04-30T01:42:04.247Z,65.9603
2023-04-30T01:43:06.604Z,65.1260
2023-04-30T01:44:08.927Z,65.5399
2023-04-30T01:45:11.280Z,64.9280
2023-04-30T01:46:13.659Z,64.6327
2023-04-30T01:47:16.070Z,64.8680
2023-04-30T01:48:18.376Z,66.2843
2023-04-30T01:49:20.621Z,65.9346
2023-04-30T01:50:22.995Z,65.1704
2023-04-30T01:51:25.284Z,64.6784
2023-04-30T01:52:27.653Z,65.2162
2023-04-30T01:53:29.988Z,66.6783
2023-04-30T01:54:32.315Z,66.8761
2023-04-30T01:55:34.700Z,66.7689
2023-04-30T01:56:37.095Z,66.4090
2023-04-30T01:57:39.368Z,66.4494
2023-04-30T01:58:41.737Z,66.5723
2023-04-30T01:59:44.111Z,65.9429
2023-04-30T02:00:46.380Z,65.4665
2023-04-30T02:01:48.776Z,65.7708
2023-04-30T02:02:58.755Z,67.0006
2023-04-30T02:03:53.540Z,67.9694
2023-04-30T02:04:55.745Z,66.7914
2023-04-30T02:05:58.127Z,65.9427
2023-04-30T02:07:00.439Z,67.5906
2023-04-30T02:08:02.783Z,68.0320
2023-04-30T02:09:05.170Z,67.5747
2023-04-30T02:10:07.466Z,66.2220
2023-04-30T02:11:09.794Z,66.1084
2023-04-30T02:12:12.133Z,67.3760
2023-04-30T02:13:14.463Z,68.2718
2023-04-30T02:14:16.821Z,68.4757
2023-04-30T02:15:19.251Z,68.6491
2023-04-30T02:16:21.519Z,67.9213
2023-04-30T02:17:23.858Z,66.9517
2023-04-30T02:18:26.163Z,67.6164
2023-04-30T02:19:28.557Z,67.3833
2023-04-30T02:20:30.855Z,67.6510
2023-04-30T02:21:33.195Z,68.0643
2023-04-30T02:22:35.542Z,68.3111
2023-04-30T02:23:37.870Z,68.6300
2023-04-30T02:24:40.268Z,68.4162
2023-04-30T02:25:42.544Z,69.1968
2023-04-30T02:26:44.920Z,69.2480
2023-04-30T02:27:47.252Z,68.1090
2023-04-30T02:28:49.589Z,67.7655
2023-04-30T02:29:52.146Z,67.7570
2023-04-30T02:30:54.245Z,67.9604
2023-04-30T02:31:56.732Z,69.1279
2023-04-30T02:32:58.966Z,69.0384
2023-04-30T02:34:01.279Z,68.2943
2023-04-30T02:35:03.632Z,68.6615
2023-04-30T02:36:05.957Z,68.0421
2023-04-30T02:37:08.329Z,67.9153
2023-04-30T02:38:10.657Z,66.9702
2023-04-30T02:39:12.992Z,67.0058
2023-04-30T02:40:15.306Z,68.0676
2023-04-30T02:41:17.662Z,68.0859
2023-04-30T02:42:20.013Z,68.7516
2023-04-30T02:43:22.327Z,67.9603
2023-04-30T02:44:24.693Z,67.0801
2023-04-30T02:45:27.017Z,66.8202
2023-04-30T02:46:29.488Z,66.6398
2023-04-30T02:47:31.699Z,67.6491
2023-04-30T02:48:34.088Z,67.3187
2023-04-30T02:49:36.417Z,66.8419
2023-04-30T02:50:38.717Z,67.2985
2023-04-30T02:51:41.093Z,68.2697
2023-04-30T02:52:43.465Z,67.7056
2023-04-30T02:53:45.732Z,66.3059
2023-04-30T02:54:48.100Z,65.7647
2023-04-30T02:55:50.429Z,65.2177
2023-04-30T02:56:52.783Z,65.4451
2023-04-30T02:57:55.114Z,64.7637
2023-04-30T02:58:57.465Z,64.5859
2023-04-30T02:59:59.775Z,64.8815
2023-04-30T03:01:02.165Z,65.5290
2023-04-30T03:02:04.552Z,65.6228
2023-04-30T03:03:06.982Z,64.5213
2023-04-30T03:04:09.154Z,63.9918
2023-04-30T03:05:11.497Z,63.3347
2023-04-30T03:06:13.867Z,62.3331
2023-04-30T03:07:16.194Z,63.4584
2023-04-30T03:08:18.663Z,62.8765
2023-04-30T03:09:20.854Z,64.0771
2023-04-30T03:10:23.210Z,64.5887
2023-04-30T03:11:25.583Z,65.8353
2023-04-30T03:12:27.903Z,65.4527
2023-04-30T03:13:30.238Z,65.2724
2023-04-30T03:14:32.569Z,65.3127
2023-04-30T03:15:34.916Z,65.3581
2023-04-30T03:16:37.267Z,65.5144
2023-04-30T03:17:39.639Z,64.8849
2023-04-30T03:18:41.927Z,64.4349
2023-04-30T03:19:44.311Z,66.1210
2023-04-30T03:20:46.669Z,67.2764
2023-04-30T03:21:49.002Z,67.2889
2023-04-30T03:22:51.334Z,66.6302
2023-04-30T03:23:53.641Z,66.6003
2023-04-30T03:24:56.021Z,66.1754
2023-04-30T03:25:58.333Z,65.4302
2023-04-30T03:27:00.719Z,67.0641
2023-04-30T03:28:03.068Z,68.6300
2023-04-30T03:29:05.393Z,68.2170
2023-04-30T03:30:07.756Z,68.1381
2023-04-30T03:31:10.100Z,67.2457
2023-04-30T03:32:12.409Z,68.1210
2023-04-30T03:33:14.757Z,68.9365
2023-04-30T03:34:17.060Z,69.0058
2023-04-30T03:35:19.425Z,68.1988
2023-04-30T03:36:21.741Z,66.8726
2023-04-30T03:37:24.090Z,66.7648
2023-04-30T03:38:26.433Z,67.3535
2023-04-30T03:39:28.760Z,66.5499
2023-04-30T03:40:31.116Z,66.2257
2023-04-30T03:41:33.469Z,65.4075
2023-04-30T03:42:35.779Z,65.4381
2023-04-30T03:43:38.255Z,65.9490
2023-04-30T03:44:40.472Z,65.6783
2023-04-30T03:45:42.914Z,65.6638
2023-04-30T03:46:45.442Z,65.7882
2023-04-30T03:47:47.507Z,67.6862
2023-04-30T03:48:49.837Z,68.5535
2023-04-30T03:49:52.388Z,69.8584
2023-04-30T03:50:54.524Z,69.8887
2023-04-30T03:51:56.861Z,70.0937
2023-04-30T03:52:59.196Z,70.6954
2023-04-30T03:54:01.554Z,70.0328
2023-04-30T03:55:03.891Z,68.6291
2023-04-30T03:56:06.179Z,68.6854
2023-04-30T03:57:08.558Z,68.2134
2023-04-30T03:58:10.875Z,67.1616
2023-04-30T03:59:13.241Z,67.1180
2023-04-30T04:00:15.563Z,67.0758
2023-04-30T04:01:17.937Z,66.3116
2023-04-30T04:02:20.295Z,66.4759
2023-04-30T04:03:22.575Z,67.4488
2023-04-30T04:04:24.962Z,67.7204
2023-04-30T04:05:27.309Z,67.5243
2023-04-30T04:06:29.657Z,66.8425
2023-04-30T04:07:31.950Z,65.7198
2023-04-30T04:08:34.288Z,66.0210
2023-04-30T04:09:36.694Z,66.7346
2023-04-30T04:10:38.958Z,66.8905
2023-04-30T04:11:41.313Z,67.5732
2023-04-30T04:12:43.615Z,68.1104
2023-04-30T04:13:45.994Z,68.3121
2023-04-30T04:14:48.317Z,67.8427
2023-04-30T04:15:50.737Z,67.5075
2023-04-30T04:16:52.967Z,68.3495
2023-04-30T04:17:55.353Z,69.3876
2023-04-30T04:18:57.674Z,69.8015
2023-04-30T04:19:59.997Z,69.1711
2023-04-30T04:21:02.332Z,69.0027
2023-04-30T04:22:04.666Z,68.6944
2023-04-30T04:23:07.135Z,67.4833
2023-04-30T04:24:09.333Z,67.2854
2023-04-30T04:25:11.678Z,67.8233
2023-04-30T04:26:14.048Z,68.3925
2023-04-30T04:27:16.356Z,68.9542
2023-04-30T04:28:18.662Z,68.9931
2023-04-30T04:29:21.078Z,68.6337
2023-04-30T04:30:23.340Z,67.7258
2023-04-30T04:31:25.764Z,67.0377
2023-04-30T04:32:28.094Z,66.9984
2023-04-30T04:33:30.385Z,66.8558
2023-04-30T04:34:32.744Z,66.7012
2023-04-30T04:35:35.053Z,66.7801
2023-04-30T04:36:37.453Z,66.4094
2023-04-30T04:37:39.701Z,66.5361
2023-04-30T04:38:42.184Z,65.8068
2023-04-30T04:39:44.398Z,65.0203
2023-04-30T04:40:46.951Z,64.7334
2023-04-30T04:41:49.037Z,65.5757
2023-04-30T04:42:51.378Z,67.0882
2023-04-30T04:43:53.738Z,66.3196
2023-04-30T04:44:56.098Z,65.4908
2023-04-30T04:45:58.395Z,65.0715
2023-04-30T04:47:00.716Z,65.1605
2023-04-30T04:48:03.139Z,65.3575
2023-04-30T04:49:05.399Z,65.6614
2023-04-30T04:50:07.777Z,66.3406
2023-04-30T04:51:10.068Z,66.0649
2023-04-30T04:52:12.393Z,67.5597
2023-04-30T04:53:14.799Z,68.6829
2023-04-30T04:54:17.192Z,68.4611
2023-04-30T04:55:19.507Z,67.0687
2023-04-30T04:56:21.771Z,68.7316
2023-04-30T04:57:24.137Z,69.5970
2023-04-30T04:58:26.513Z,71.0143
2023-04-30T04:59:28.780Z,71.2046
2023-04-30T05:00:31.103Z,70.6505
2023-04-30T05:01:33.436Z,70.1234
2023-04-30T05:02:35.978Z,68.7151
2023-04-30T05:03:38.289Z,68.0188
2023-04-30T05:04:40.420Z,68.0202
2023-04-30T05:05:42.908Z,69.5660
2023-04-30T05:06:45.201Z,70.5821
2023-04-30T05:07:47.466Z,71.0224
2023-04-30T05:08:49.788Z,71.9701
2023-04-30T05:09:52.160Z,72.3329
2023-04-30T05:10:54.442Z,71.1202
2023-04-30T05:11:56.777Z,71.9851
2023-04-30T05:12:59.196Z,72.6248
2023-04-30T05:14:01.432Z,71.3835
2023-04-30T05:15:03.770Z,71.3523
2023-04-30T05:16:06.146Z,72.5741
2023-04-30T05:17:08.444Z,71.8638
2023-04-30T05:18:10.817Z,71.2839
2023-04-30T05:19:13.113Z,71.6310
2023-04-30T05:20:15.561Z,70.7251
2023-04-30T05:21:17.818Z,70.6883
2023-04-30T05:22:20.157Z,70.4272
2023-04-30T05:23:22.464Z,69.9547
2023-04-30T05:24:24.778Z,69.2907
2023-04-30T05:25:27.238Z,68.7239
2023-04-30T05:26:29.473Z,68.6123
2023-04-30T05:27:31.913Z,68.6047
2023-04-30T05:28:34.169Z,69.8400
2023-04-30T05:29:36.480Z,69.4289
2023-04-30T05:30:38.818Z,68.4733
2023-04-30T05:31:41.151Z,68.5661
2023-04-30T05:32:43.700Z,69.4024
2023-04-30T05:33:46.159Z,69.3045
2023-04-30T05:34:48.468Z,68.3818
2023-04-30T05:35:50.452Z,68.3208
2023-04-30T05:36:52.974Z,68.8445
2023-04-30T05:37:55.223Z,68.6826
2023-04-30T05:38:57.474Z,67.7406
2023-04-30T05:40:00.001Z,67.8966
2023-04-30T05:41:02.324Z,67.3576
2023-04-30T05:42:04.467Z,66.8940
2023-04-30T05:43:06.816Z,67.6403
2023-04-30T05:44:09.499Z,67.4377
2023-04-30T05:45:11.593Z,68.1755
2023-04-30T05:46:14.037Z,67.4417
2023-04-30T05:47:16.152Z,66.9862
2023-04-30T05:48:18.514Z,67.1317
2023-04-30T05:49:20.876Z,67.4226
2023-04-30T05:50:23.154Z,68.0036
2023-04-30T05:51:25.742Z,67.2052
2023-04-30T05:52:28.287Z,66.6742
2023-04-30T05:53:30.197Z,66.9943
2023-04-30T05:54:32.508Z,67.6713
2023-04-30T05:55:34.892Z,68.1280
2023-04-30T05:56:37.187Z,67.8483
2023-04-30T05:57:39.519Z,67.7378
2023-04-30T05:58:41.947Z,69.0427
2023-04-30T05:59:44.204Z,69.3893
2023-04-30T06:00:46.527Z,68.3284
2023-04-30T06:01:49.079Z,67.8738
2023-04-30T06:02:51.300Z,68.8491
2023-04-30T06:03:53.623Z,68.6102
2023-04-30T06:04:56.095Z,67.8975
2023-04-30T06:05:58.407Z,66.7571
2023-04-30T06:07:00.745Z,67.1809
2023-04-30T06:08:02.976Z,67.1920
2023-04-30T06:09:05.393Z,68.4475
2023-04-30T06:10:07.653Z,68.3176
2023-04-30T06:11:09.989Z,68.4689
2023-04-30T06:12:12.395Z,68.3027
2023-04-30T06:13:14.834Z,67.6178
2023-04-30T06:14:17.043Z,67.4429
2023-04-30T06:15:26.869Z,68.3941
2023-04-30T06:16:21.691Z,69.2114
2023-04-30T06:17:24.020Z,68.9085
2023-04-30T06:18:26.358Z,67.6198
2023-04-30T06:19:28.691Z,68.0535
2023-04-30T06:20:31.067Z,67.8967
2023-04-30T06:21:33.400Z,67.8773
2023-04-30T06:22:35.937Z,68.8092
2023-04-30T06:23:38.033Z,68.1473
2023-04-30T06:24:40.390Z,69.3626
2023-04-30T06:25:42.778Z,69.9956
2023-04-30T06:26:45.034Z,70.9218
2023-04-30T06:27:47.412Z,69.7048
2023-04-30T06:28:50.017Z,69.4673
2023-04-30T06:29:52.295Z,69.9471
2023-04-30T06:30:54.432Z,69.8037
2023-04-30T06:31:56.781Z,70.5312
2023-04-30T06:32:59.138Z,70.4727
2023-04-30T06:34:01.449Z,70.6867
2023-04-30T06:35:03.776Z,70.4924
2023-04-30T06:36:06.145Z,70.7115
2023-04-30T06:37:08.448Z,69.8792
2023-04-30T06:38:10.778Z,69.4021
2023-04-30T06:39:13.111Z,68.8746
2023-04-30T06:40:15.456Z,68.3846
2023-04-30T06:41:17.806Z,69.1087
2023-04-30T06:42:20.154Z,69.8499
2023-04-30T06:43:22.479Z,69.5802
2023-04-30T06:44:25.059Z,69.7842
2023-04-30T06:45:27.183Z,69.3376
2023-04-30T06:46:29.647Z,70.1570
2023-04-30T06:47:31.829Z,70.1008
2023-04-30T06:48:34.186Z,69.3734
2023-04-30T06:49:36.480Z,69.1068
2023-04-30T06:50:38.856Z,69.7433
2023-04-30T06:51:41.210Z,69.9342
2023-04-30T06:52:43.530Z,70.4371
2023-04-30T06:53:45.821Z,69.1340
2023-04-30T06:54:48.217Z,70.0327
2023-04-30T06:55:50.531Z,69.7912
2023-04-30T06:56:52.903Z,69.3030
2023-04-30T06:57:55.193Z,69.9779
2023-04-30T06:58:57.534Z,69.2250
2023-04-30T06:59:59.836Z,68.4824
2023-04-30T07:01:02.194Z,68.3616
2023-04-30T07:02:04.541Z,68.4830
2023-04-30T07:03:06.930Z,67.5422
2023-04-30T07:04:09.190Z,67.9700
2023-04-30T07:05:11.827Z,69.5088
2023-04-30T07:06:13.894Z,69.5984
2023-04-30T07:07:16.208Z,69.1718
2023-04-30T07:08:18.557Z,69.5258
2023-04-30T07:09:20.888Z,68.8481
2023-04-30T07:10:23.207Z,69.2872
2023-04-30T07:11:25.544Z,68.9403
2023-04-30T07:12:27.893Z,68.8693
2023-04-30T07:13:30.211Z,68.4368
2023-04-30T07:14:32.550Z,68.4555
2023-04-30T07:15:34.971Z,68.4932
2023-04-30T07:16:37.215Z,68.2203
2023-04-30T07:17:39.644Z,68.1764
2023-04-30T07:18:42.030Z,69.3479
2023-04-30T07:19:44.242Z,69.1466
2023-04-30T07:20:46.574Z,68.4256
2023-04-30T07:21:48.924Z,67.8658
2023-04-30T07:22:51.241Z,67.4233
2023-04-30T07:23:53.620Z,66.8020
2023-04-30T07:24:55.931Z,66.5516
2023-04-30T07:25:58.260Z,68.0945
2023-04-30T07:27:00.677Z,68.4134
2023-04-30T07:28:02.936Z,68.9579
2023-04-30T07:29:05.472Z,69.0333
2023-04-30T07:30:07.659Z,70.3831
2023-04-30T07:31:09.995Z,70.5075
2023-04-30T07:32:12.311Z,70.8151
2023-04-30T07:33:14.703Z,70.6814
2023-04-30T07:34:16.987Z,70.2754
2023-04-30T07:35:19.395Z,69.4085
2023-04-30T07:36:21.646Z,69.2760
2023-04-30T07:37:23.989Z,69.7793
2023-04-30T07:38:26.343Z,70.3616
2023-04-30T07:39:28.675Z,71.2294
2023-04-30T07:40:36.252Z,70.6896
2023-04-30T07:41:33.339Z,70.8299
2023-04-30T07:42:35.847Z,69.6394
2023-04-30T07:43:38.066Z,70.3637
2023-04-30T07:44:40.377Z,70.1123
2023-04-30T07:45:42.869Z,69.6502
2023-04-30T07:46:45.090Z,69.4682
2023-04-30T07:47:47.396Z,68.4930
2023-04-30T07:48:49.782Z,68.9425
2023-04-30T07:49:52.111Z,69.1605
2023-04-30T07:50:54.573Z,68.9542
2023-04-30T07:51:56.955Z,68.9324
2023-04-30T07:52:59.112Z,69.7769
2023-04-30T07:54:01.402Z,70.6651
2023-04-30T07:55:03.772Z,70.5293
2023-04-30T07:56:06.196Z,71.0394
2023-04-30T07:57:08.429Z,69.9444
2023-04-30T07:58:10.824Z,69.5841
2023-04-30T07:59:13.111Z,68.2779
2023-04-30T08:00:15.978Z,67.9606
2023-04-30T08:01:17.809Z,68.3295
2023-04-30T08:02:20.208Z,68.4064
2023-04-30T08:03:22.526Z,68.1376
2023-04-30T08:04:24.941Z,68.8089
2023-04-30T08:05:27.137Z,69.5809
2023-04-30T08:06:29.540Z,69.2156
2023-04-30T08:07:31.820Z,69.1268
2023-04-30T08:08:34.153Z,69.1298
2023-04-30T08:09:36.539Z,68.8667
2023-04-30T08:10:38.856Z,68.3886
2023-04-30T08:11:41.188Z,67.5059
2023-04-30T08:12:43.575Z,67.9277
2023-04-30T08:13:45.845Z,67.2584
2023-04-30T08:14:48.174Z,67.2827
2023-04-30T08:15:50.524Z,65.8759
2023-04-30T08:16:52.975Z,65.9988
2023-04-30T08:17:55.230Z,66.2277
2023-04-30T08:18:57.561Z,65.9674
2023-04-30T08:19:59.873Z,65.6035
2023-04-30T08:21:02.203Z,65.5288
2023-04-30T08:22:04.540Z,66.6729
2023-04-30T08:23:06.921Z,67.6559
2023-04-30T08:24:09.209Z,67.4466
2023-04-30T08:25:11.725Z,66.5602
2023-04-30T08:26:13.893Z,65.5911
2023-04-30T08:27:16.241Z,64.5679
2023-04-30T08:28:18.565Z,65.4252
2023-04-30T08:29:20.936Z,65.4411
2023-04-30T08:30:23.374Z,65.1230
2023-04-30T08:31:25.731Z,65.8114
2023-04-30T08:32:28.021Z,65.6553
2023-04-30T08:33:30.413Z,65.8342
2023-04-30T08:34:32.635Z,67.3612
2023-04-30T08:35:35.008Z,67.5931
2023-04-30T08:36:37.321Z,67.3137
2023-04-30T08:37:39.627Z,67.8758
2023-04-30T08:38:41.959Z,66.9312
2023-04-30T08:39:44.346Z,67.2147
2023-04-30T08:40:51.575Z,66.2411
2023-04-30T08:41:48.962Z,65.4950
2023-04-30T08:42:51.340Z,65.2252
2023-04-30T08:43:53.679Z,66.4335
2023-04-30T08:44:56.025Z,65.3669
2023-04-30T08:45:58.327Z,64.8172
2023-04-30T08:47:00.674Z,65.8271
2023-04-30T08:48:03.154Z,64.9743
2023-04-30T08:49:05.355Z,64.5822
2023-04-30T08:50:07.835Z,65.2635
2023-04-30T08:51:09.988Z,65.2063
2023-04-30T08:52:12.369Z,64.7386
2023-04-30T08:53:14.712Z,65.5800
2023-04-30T08:54:17.016Z,65.6097
2023-04-30T08:55:19.356Z,65.9021
2023-04-30T08:56:23.109Z,65.2442
2023-04-30T08:57:24.032Z,64.9859
2023-04-30T08:58:26.375Z,65.2434
2023-04-30T08:59:28.709Z,64.4773
2023-04-30T09:00:31.134Z,63.5884
2023-04-30T09:01:33.449Z,63.6066
2023-04-30T09:02:35.832Z,63.9651
2023-04-30T09:03:38.182Z,64.1085
2023-04-30T09:04:40.583Z,64.6427
2023-04-30T09:05:42.785Z,65.2603
2023-04-30T09:06:45.201Z,64.8084
2023-04-30T09:08:49.870Z,63.2848
2023-04-30T09:09:52.171Z,63.3984
2023-04-30T09:10:54.427Z,64.8365
2023-04-30T09:11:56.761Z,64.5530
2023-04-30T09:12:59.097Z,63.9755
2023-04-30T09:14:01.463Z,63.8947
2023-04-30T09:15:03.914Z,63.9402
2023-04-30T09:16:06.160Z,63.6536
2023-04-30T09:17:08.439Z,63.6451
2023-04-30T09:18:10.895Z,62.7734
2023-04-30T09:19:13.127Z,62.0035
2023-04-30T09:20:15.474Z,62.1678
2023-04-30T09:21:17.798Z,61.6945
2023-04-30T09:22:20.137Z,62.1718
2023-04-30T09:23:22.488Z,62.4323
2023-04-30T09:24:24.869Z,62.2472
2023-04-30T09:25:27.173Z,61.7716
2023-04-30T09:26:29.519Z,61.2433
2023-04-30T09:27:31.842Z,62.3516
2023-04-30T09:28:34.167Z,62.5668
2023-04-30T09:29:36.519Z,62.6386
2023-04-30T09:30:38.960Z,62.0443
2023-04-30T09:31:41.214Z,62.2516
2023-04-30T09:32:43.542Z,61.7172
2023-04-30T09:33:46.040Z,62.4099
2023-04-30T09:34:48.215Z,62.7098
2023-04-30T09:35:50.531Z,62.5337
2023-04-30T09:36:52.908Z,62.1023
2023-04-30T09:37:55.244Z,61.9772
2023-04-30T09:38:57.558Z,61.6234
2023-04-30T09:39:59.893Z,60.8472
2023-04-30T09:41:02.230Z,61.4537
2023-04-30T09:42:04.571Z,61.1806
2023-04-30T09:43:06.946Z,61.3807
2023-04-30T09:44:09.291Z,61.1640
2023-04-30T09:45:11.590Z,61.2615
2023-04-30T09:46:13.959Z,61.1826
2023-04-30T09:47:16.267Z,61.0936
2023-04-30T09:48:18.685Z,60.9140
2023-04-30T09:49:20.979Z,61.1112
2023-04-30T09:50:23.350Z,59.9785
2023-04-30T09:51:25.652Z,59.3371
2023-04-30T09:52:28.005Z,59.3042
2023-04-30T09:53:30.314Z,59.8231
2023-04-30T09:54:32.697Z,60.3315
2023-04-30T09:55:35.032Z,60.2777
2023-04-30T09:56:37.339Z,60.2485
2023-04-30T09:57:39.674Z,59.8797
2023-04-30T09:58:42.016Z,59.1498
2023-04-30T09:59:44.365Z,59.7509
2023-04-30T10:00:46.907Z,59.7313
2023-04-30T10:01:49.047Z,59.7473
2023-04-30T10:02:51.414Z,59.3877
2023-04-30T10:03:54.042Z,59.6284
2023-04-30T10:04:56.115Z,59.5876
2023-04-30T10:05:58.431Z,59.3572
2023-04-30T10:07:00.822Z,58.8279
2023-04-30T10:08:03.174Z,58.0848
2023-04-30T10:09:05.546Z,57.4982
2023-04-30T10:10:07.892Z,57.7511
2023-04-30T10:11:10.199Z,57.4614
2023-04-30T10:12:12.536Z,57.6215
2023-04-30T10:13:15.165Z,57.3363
2023-04-30T10:14:17.227Z,55.9146
2023-04-30T10:15:19.567Z,55.6006
2023-04-30T10:16:22.967Z,55.8194
2023-04-30T10:17:24.280Z,55.9642
2023-04-30T10:18:26.609Z,56.2493
2023-04-30T10:19:28.963Z,55.9726
2023-04-30T10:20:32.024Z,54.6573
2023-04-30T10:21:33.629Z,53.3871
2023-04-30T10:22:36.020Z,52.5317
2023-04-30T10:23:38.328Z,52.3379
2023-04-30T10:24:40.670Z,53.2391
2023-04-30T10:25:43.076Z,52.0261
2023-04-30T10:26:45.375Z,51.9146
2023-04-30T10:27:47.704Z,52.3641
2023-04-30T10:28:50.120Z,53.2823
2023-04-30T10:29:52.438Z,51.9964
2023-04-30T10:30:54.773Z,51.4128
2023-04-30T10:31:57.155Z,52.1980
2023-04-30T10:32:59.500Z,50.9734
2023-04-30T10:34:01.789Z,51.0572
2023-04-30T10:35:04.166Z,51.6938
2023-04-30T10:36:06.515Z,51.6231
2023-04-30T10:37:08.939Z,51.3975
2023-04-30T10:38:11.274Z,51.4592
2023-04-30T10:39:13.580Z,50.8740
2023-04-30T10:40:15.855Z,50.1506
2023-04-30T10:41:18.208Z,49.5527
2023-04-30T10:42:20.545Z,49.2385
2023-04-30T10:43:22.949Z,48.5065
2023-04-30T10:44:25.240Z,48.5360
2023-04-30T10:45:27.589Z,48.9328
2023-04-30T10:46:29.965Z,49.8224
2023-04-30T10:47:32.314Z,49.6156
2023-04-30T10:48:34.625Z,50.0893
2023-04-30T10:49:36.975Z,49.7055
2023-04-30T10:50:39.301Z,49.7303
2023-04-30T10:51:41.699Z,49.4879
2023-04-30T10:52:43.989Z,50.4011
2023-04-30T10:53:46.348Z,50.3760
2023-04-30T10:54:48.699Z,49.6699
2023-04-30T10:55:51.037Z,49.3764
2023-04-30T10:56:53.406Z,49.7445
2023-04-30T10:57:55.886Z,50.1847
2023-04-30T10:58:58.072Z,50.3303
2023-04-30T11:00:00.419Z,50.6005
2023-04-30T11:01:02.922Z,50.4722
2023-04-30T11:02:05.120Z,49.9040
2023-04-30T11:03:07.841Z,50.2818
2023-04-30T11:04:09.790Z,50.5474
2023-04-30T11:05:12.817Z,50.1417
2023-04-30T11:06:14.552Z,50.7903
2023-04-30T11:07:16.888Z,50.4031
2023-04-30T11:08:19.165Z,50.7462
2023-04-30T11:09:21.502Z,51.6024
2023-04-30T11:10:23.920Z,51.1091
2023-04-30T11:11:26.191Z,51.0681
2023-04-30T11:12:28.728Z,50.5271
2023-04-30T11:13:30.925Z,50.8923
2023-04-30T11:14:33.218Z,50.8483
2023-04-30T11:15:35.635Z,50.6183
2023-04-30T11:16:37.955Z,50.0852
2023-04-30T11:17:40.323Z,50.4864
2023-04-30T11:18:42.601Z,50.5587
2023-04-30T11:19:44.934Z,50.5999
2023-04-30T11:20:47.314Z,50.7005
2023-04-30T11:21:49.685Z,51.2168
2023-04-30T11:22:52.017Z,51.3015
2023-04-30T11:23:54.426Z,51.0394
2023-04-30T11:24:56.644Z,51.2715
2023-04-30T11:25:58.989Z,51.9421
2023-04-30T11:27:01.330Z,51.1869
2023-04-30T11:28:03.692Z,51.6515
2023-04-30T11:29:06.225Z,51.6645
2023-04-30T11:30:08.389Z,52.6995
2023-04-30T11:31:10.719Z,52.3650
2023-04-30T11:32:13.046Z,51.8482
2023-04-30T11:33:15.402Z,52.0656
2023-04-30T11:34:17.836Z,53.3834
2023-04-30T11:35:20.091Z,53.3562
2023-04-30T11:36:22.421Z,53.3901
2023-04-30T11:37:24.750Z,53.2500
2023-04-30T11:38:27.139Z,53.3998
2023-04-30T11:39:29.440Z,53.5629
2023-04-30T11:40:31.779Z,53.2095
2023-04-30T11:41:34.111Z,52.6277
2023-04-30T11:42:36.558Z,52.5819
2023-04-30T11:43:38.863Z,52.9948
2023-04-30T11:44:41.174Z,53.8824
2023-04-30T11:45:43.475Z,53.8114
2023-04-30T11:46:45.893Z,53.1386
2023-04-30T11:47:48.303Z,53.7213
2023-04-30T11:48:50.505Z,54.0615
2023-04-30T11:49:53.295Z,54.0129
2023-04-30T11:50:55.213Z,52.9441
2023-04-30T11:51:57.545Z,53.4927
2023-04-30T11:52:59.854Z,54.2387
2023-04-30T11:54:02.335Z,53.8166
2023-04-30T11:55:04.518Z,53.6161
2023-04-30T11:56:06.947Z,53.7238
2023-04-30T11:57:09.192Z,52.7574
2023-04-30T11:58:11.617Z,53.3056
2023-04-30T11:59:13.888Z,53.4274
2023-04-30T12:00:16.282Z,53.8166
2023-04-30T12:01:18.571Z,53.8251
2023-04-30T12:02:21.023Z,53.4190
2023-04-30T12:03:23.302Z,53.8958
2023-04-30T12:04:25.623Z,53.8825
2023-04-30T12:05:27.970Z,54.7448
2023-04-30T12:06:30.362Z,55.0493
2023-04-30T12:07:32.602Z,54.1489
2023-04-30T12:08:34.979Z,53.8773
2023-04-30T12:09:37.292Z,53.8805
2023-04-30T12:10:39.632Z,54.1694
2023-04-30T12:11:41.987Z,54.5519
2023-04-30T12:12:44.329Z,53.8369
2023-04-30T12:13:46.657Z,53.0015
2023-04-30T12:14:49.167Z,53.5850
2023-04-30T12:15:51.359Z,53.1694
2023-04-30T12:16:53.721Z,53.4491
2023-04-30T12:17:56.362Z,53.6726
2023-04-30T12:18:58.398Z,53.0935
2023-04-30T12:20:00.715Z,53.1965
2023-04-30T12:21:03.079Z,53.0600
2023-04-30T12:22:05.408Z,52.3847
2023-04-30T12:23:07.797Z,53.0983
2023-04-30T12:24:10.096Z,53.1898
2023-04-30T12:25:12.427Z,53.0246
2023-04-30T12:26:14.981Z,52.5121
2023-04-30T12:27:17.136Z,53.5419
2023-04-30T12:28:19.457Z,52.9675
2023-04-30T12:29:21.805Z,52.8537
2023-04-30T12:30:24.701Z,53.4002
2023-04-30T12:31:26.492Z,53.3417
2023-04-30T12:32:28.968Z,52.3923
2023-04-30T12:33:31.165Z,52.1221
2023-04-30T12:34:33.979Z,52.0272